Flight Briefing for CMB852

Departure Arrival
Yokota AFB (RJTY)
Click to view FAA NOTAMS
Paya Lebar Airport (WSAP)
Click to view FAA NOTAMS
Departure Time Arrival Time
N/A N/A
Aircraft Distance
B757-200SF 2891nm
Departure METAR Arrival METAR
RJTY 230556Z AUTO 17011G18KT 10SM CLR 26/08 A2978 RMK AO2 SLP084 T02590079 10262 20226 57017 FZRANO $ WSAP 230600Z 21008KT 9999 FEW020 BKN300 33/25 Q1010
Suggested Route
XAC V18 MOE KARTA BUBDO MDE JOM M767 TOMAN


View recent IFR Routes data
Notes
USTRANSCOM CONTRACT FLIGHT

Charts and Procedures

Charts for RJTY
No chart available
Charts for WSAP
No chart available

Windy.com Weather Map